sensor_id;sensor_type;location;lat;lon;timestamp;P1;durP1;ratioP1;P2;durP2;ratioP2
55069;SDS011;40967;52.070;8.596;2022-12-20T00:02:06;3.70;;;1.60;;
55069;SDS011;40967;52.070;8.596;2022-12-20T00:04:31;2.77;;;1.50;;
55069;SDS011;40967;52.070;8.596;2022-12-20T00:06:57;3.37;;;1.70;;
55069;SDS011;40967;52.070;8.596;2022-12-20T00:09:22;2.67;;;1.50;;
55069;SDS011;40967;52.070;8.596;2022-12-20T00:11:49;3.40;;;1.70;;
55069;SDS011;40967;52.070;8.596;2022-12-20T00:14:15;2.83;;;1.35;;
55069;SDS011;40967;52.070;8.596;2022-12-20T00:16:41;2.67;;;1.30;;
55069;SDS011;40967;52.070;8.596;2022-12-20T00:19:08;2.78;;;1.40;;
55069;SDS011;40967;52.070;8.596;2022-12-20T00:21:35;3.00;;;1.33;;
55069;SDS011;40967;52.070;8.596;2022-12-20T00:24:01;2.30;;;1.20;;
55069;SDS011;40967;52.070;8.596;2022-12-20T00:26:29;3.78;;;1.80;;
55069;SDS011;40967;52.070;8.596;2022-12-20T00:28:55;3.30;;;1.70;;
55069;SDS011;40967;52.070;8.596;2022-12-20T00:31:22;2.92;;;1.45;;
55069;SDS011;40967;52.070;8.596;2022-12-20T00:33:49;2.55;;;1.25;;
55069;SDS011;40967;52.070;8.596;2022-12-20T00:36:16;5.23;;;2.13;;
55069;SDS011;40967;52.070;8.596;2022-12-20T00:38:43;3.00;;;1.45;;
55069;SDS011;40967;52.070;8.596;2022-12-20T00:41:11;3.00;;;1.50;;
55069;SDS011;40967;52.070;8.596;2022-12-20T00:43:38;3.53;;;1.70;;
55069;SDS011;40967;52.070;8.596;2022-12-20T00:46:04;3.23;;;1.43;;
55069;SDS011;40967;52.070;8.596;2022-12-20T00:48:31;2.22;;;1.23;;
55069;SDS011;40967;52.070;8.596;2022-12-20T00:51:00;2.60;;;1.30;;
55069;SDS011;40967;52.070;8.596;2022-12-20T00:53:27;4.43;;;2.20;;
55069;SDS011;40967;52.070;8.596;2022-12-20T00:55:52;2.93;;;1.60;;
55069;SDS011;40967;52.070;8.596;2022-12-20T00:58:18;4.20;;;2.30;;
55069;SDS011;40967;52.070;8.596;2022-12-20T01:00:43;3.77;;;1.80;;
55069;SDS011;40967;52.070;8.596;2022-12-20T01:03:09;3.50;;;1.80;;
55069;SDS011;40967;52.070;8.596;2022-12-20T01:05:34;3.17;;;1.60;;
55069;SDS011;40967;52.070;8.596;2022-12-20T01:08:00;2.40;;;1.33;;
55069;SDS011;40967;52.070;8.596;2022-12-20T01:10:25;2.53;;;1.30;;
55069;SDS011;40967;52.070;8.596;2022-12-20T01:12:51;2.60;;;1.38;;
55069;SDS011;40967;52.070;8.596;2022-12-20T01:15:17;2.83;;;1.40;;
55069;SDS011;40967;52.070;8.596;2022-12-20T01:17:42;2.42;;;1.10;;
55069;SDS011;40967;52.070;8.596;2022-12-20T01:20:08;2.85;;;1.38;;
55069;SDS011;40967;52.070;8.596;2022-12-20T01:22:33;3.67;;;1.67;;
55069;SDS011;40967;52.070;8.596;2022-12-20T01:24:59;3.38;;;1.70;;
55069;SDS011;40967;52.070;8.596;2022-12-20T01:27:24;2.60;;;1.40;;
55069;SDS011;40967;52.070;8.596;2022-12-20T01:29:50;2.40;;;1.00;;
55069;SDS011;40967;52.070;8.596;2022-12-20T01:32:15;1.80;;;1.02;;
55069;SDS011;40967;52.070;8.596;2022-12-20T01:34:41;2.10;;;1.07;;
55069;SDS011;40967;52.070;8.596;2022-12-20T01:37:06;1.90;;;0.97;;
55069;SDS011;40967;52.070;8.596;2022-12-20T01:39:32;1.80;;;0.98;;
55069;SDS011;40967;52.070;8.596;2022-12-20T01:41:57;1.90;;;1.03;;
55069;SDS011;40967;52.070;8.596;2022-12-20T01:46:48;1.83;;;0.90;;
55069;SDS011;40967;52.070;8.596;2022-12-20T01:51:48;1.80;;;1.00;;
55069;SDS011;40967;52.070;8.596;2022-12-20T01:54:21;1.60;;;0.90;;
55069;SDS011;40967;52.070;8.596;2022-12-20T01:56:52;2.10;;;0.90;;
55069;SDS011;40967;52.070;8.596;2022-12-20T01:59:22;1.20;;;0.70;;
55069;SDS011;40967;52.070;8.596;2022-12-20T02:01:49;1.50;;;0.70;;
55069;SDS011;40967;52.070;8.596;2022-12-20T02:04:15;1.27;;;0.73;;
55069;SDS011;40967;52.070;8.596;2022-12-20T02:06:40;1.33;;;0.67;;
55069;SDS011;40967;52.070;8.596;2022-12-20T02:09:06;2.08;;;0.90;;
55069;SDS011;40967;52.070;8.596;2022-12-20T02:11:48;1.60;;;0.90;;
55069;SDS011;40967;52.070;8.596;2022-12-20T02:17:03;1.93;;;1.00;;
55069;SDS011;40967;52.070;8.596;2022-12-20T02:31:37;2.25;;;1.00;;
55069;SDS011;40967;52.070;8.596;2022-12-20T02:34:06;1.27;;;0.70;;
55069;SDS011;40967;52.070;8.596;2022-12-20T02:36:34;2.35;;;1.00;;
55069;SDS011;40967;52.070;8.596;2022-12-20T02:38:59;1.57;;;0.80;;
55069;SDS011;40967;52.070;8.596;2022-12-20T02:41:26;1.90;;;0.80;;
55069;SDS011;40967;52.070;8.596;2022-12-20T02:43:58;2.50;;;1.20;;
55069;SDS011;40967;52.070;8.596;2022-12-20T02:46:45;2.20;;;0.98;;
55069;SDS011;40967;52.070;8.596;2022-12-20T02:49:13;2.28;;;0.90;;
55069;SDS011;40967;52.070;8.596;2022-12-20T02:51:42;2.15;;;1.00;;
55069;SDS011;40967;52.070;8.596;2022-12-20T02:54:10;1.67;;;1.00;;
55069;SDS011;40967;52.070;8.596;2022-12-20T02:56:50;1.27;;;0.80;;
55069;SDS011;40967;52.070;8.596;2022-12-20T03:01:55;1.90;;;0.80;;
55069;SDS011;40967;52.070;8.596;2022-12-20T03:04:25;1.60;;;0.85;;
55069;SDS011;40967;52.070;8.596;2022-12-20T03:09:25;1.45;;;0.70;;
55069;SDS011;40967;52.070;8.596;2022-12-20T03:11:51;1.30;;;0.70;;
55069;SDS011;40967;52.070;8.596;2022-12-20T03:14:17;1.33;;;0.73;;
55069;SDS011;40967;52.070;8.596;2022-12-20T03:16:43;1.33;;;0.80;;
55069;SDS011;40967;52.070;8.596;2022-12-20T03:19:08;1.57;;;0.80;;
55069;SDS011;40967;52.070;8.596;2022-12-20T03:21:33;1.03;;;0.60;;
55069;SDS011;40967;52.070;8.596;2022-12-20T03:23:59;0.90;;;0.55;;
55069;SDS011;40967;52.070;8.596;2022-12-20T03:26:24;1.50;;;0.60;;
55069;SDS011;40967;52.070;8.596;2022-12-20T03:28:49;1.30;;;0.70;;
55069;SDS011;40967;52.070;8.596;2022-12-20T03:31:15;1.97;;;0.60;;
55069;SDS011;40967;52.070;8.596;2022-12-20T03:33:40;2.05;;;0.77;;
55069;SDS011;40967;52.070;8.596;2022-12-20T03:36:06;1.73;;;0.80;;
55069;SDS011;40967;52.070;8.596;2022-12-20T03:38:31;1.17;;;0.60;;
55069;SDS011;40967;52.070;8.596;2022-12-20T03:40:57;0.88;;;0.57;;
55069;SDS011;40967;52.070;8.596;2022-12-20T03:43:22;0.70;;;0.50;;
55069;SDS011;40967;52.070;8.596;2022-12-20T03:45:48;1.37;;;0.70;;
55069;SDS011;40967;52.070;8.596;2022-12-20T03:48:13;1.00;;;0.60;;
55069;SDS011;40967;52.070;8.596;2022-12-20T03:50:39;1.73;;;0.80;;
55069;SDS011;40967;52.070;8.596;2022-12-20T03:53:05;1.20;;;0.60;;
55069;SDS011;40967;52.070;8.596;2022-12-20T03:55:30;0.93;;;0.70;;
55069;SDS011;40967;52.070;8.596;2022-12-20T03:57:56;1.33;;;0.70;;
55069;SDS011;40967;52.070;8.596;2022-12-20T04:00:21;1.33;;;0.73;;
55069;SDS011;40967;52.070;8.596;2022-12-20T04:02:47;1.70;;;0.90;;
55069;SDS011;40967;52.070;8.596;2022-12-20T04:05:12;1.57;;;0.80;;
55069;SDS011;40967;52.070;8.596;2022-12-20T04:07:38;1.00;;;0.60;;
55069;SDS011;40967;52.070;8.596;2022-12-20T04:10:03;1.20;;;0.60;;
55069;SDS011;40967;52.070;8.596;2022-12-20T04:12:29;1.30;;;0.63;;
55069;SDS011;40967;52.070;8.596;2022-12-20T04:14:55;1.07;;;0.60;;
55069;SDS011;40967;52.070;8.596;2022-12-20T04:17:20;1.10;;;0.50;;
55069;SDS011;40967;52.070;8.596;2022-12-20T04:19:45;1.50;;;0.70;;
55069;SDS011;40967;52.070;8.596;2022-12-20T04:22:11;1.47;;;0.70;;
55069;SDS011;40967;52.070;8.596;2022-12-20T04:24:36;1.60;;;0.80;;
55069;SDS011;40967;52.070;8.596;2022-12-20T04:27:02;1.53;;;0.73;;
55069;SDS011;40967;52.070;8.596;2022-12-20T04:29:27;1.10;;;0.70;;
55069;SDS011;40967;52.070;8.596;2022-12-20T04:31:53;0.80;;;0.60;;
55069;SDS011;40967;52.070;8.596;2022-12-20T04:34:18;1.87;;;0.83;;
55069;SDS011;40967;52.070;8.596;2022-12-20T04:36:43;1.27;;;0.67;;
55069;SDS011;40967;52.070;8.596;2022-12-20T04:39:09;1.03;;;0.70;;
55069;SDS011;40967;52.070;8.596;2022-12-20T04:41:34;2.08;;;0.98;;
55069;SDS011;40967;52.070;8.596;2022-12-20T04:44:00;1.90;;;0.80;;
55069;SDS011;40967;52.070;8.596;2022-12-20T04:46:25;1.47;;;0.80;;
55069;SDS011;40967;52.070;8.596;2022-12-20T04:48:51;0.70;;;0.57;;
55069;SDS011;40967;52.070;8.596;2022-12-20T04:51:17;1.17;;;0.60;;
55069;SDS011;40967;52.070;8.596;2022-12-20T04:53:43;2.85;;;1.25;;
55069;SDS011;40967;52.070;8.596;2022-12-20T04:56:12;2.80;;;1.10;;
55069;SDS011;40967;52.070;8.596;2022-12-20T04:58:48;1.55;;;0.90;;
55069;SDS011;40967;52.070;8.596;2022-12-20T05:01:16;1.58;;;0.80;;
55069;SDS011;40967;52.070;8.596;2022-12-20T05:03:42;2.17;;;1.00;;
55069;SDS011;40967;52.070;8.596;2022-12-20T05:06:09;1.58;;;0.80;;
55069;SDS011;40967;52.070;8.596;2022-12-20T05:08:34;1.50;;;0.90;;
55069;SDS011;40967;52.070;8.596;2022-12-20T05:11:00;2.30;;;1.10;;
55069;SDS011;40967;52.070;8.596;2022-12-20T05:13:26;2.33;;;1.10;;
55069;SDS011;40967;52.070;8.596;2022-12-20T05:15:52;1.88;;;1.00;;
55069;SDS011;40967;52.070;8.596;2022-12-20T05:18:18;2.35;;;1.10;;
55069;SDS011;40967;52.070;8.596;2022-12-20T05:20:44;1.93;;;1.00;;
55069;SDS011;40967;52.070;8.596;2022-12-20T05:23:10;2.40;;;1.13;;
55069;SDS011;40967;52.070;8.596;2022-12-20T05:25:54;2.10;;;1.00;;
55069;SDS011;40967;52.070;8.596;2022-12-20T05:28:38;1.80;;;1.00;;
55069;SDS011;40967;52.070;8.596;2022-12-20T05:31:04;1.83;;;1.00;;
55069;SDS011;40967;52.070;8.596;2022-12-20T05:33:30;4.18;;;1.60;;
55069;SDS011;40967;52.070;8.596;2022-12-20T05:35:55;1.70;;;1.07;;
55069;SDS011;40967;52.070;8.596;2022-12-20T05:38:21;2.17;;;1.27;;
55069;SDS011;40967;52.070;8.596;2022-12-20T05:40:47;1.52;;;1.00;;
55069;SDS011;40967;52.070;8.596;2022-12-20T05:43:14;1.58;;;0.90;;
55069;SDS011;40967;52.070;8.596;2022-12-20T05:45:39;1.90;;;1.02;;
55069;SDS011;40967;52.070;8.596;2022-12-20T05:48:09;2.50;;;1.00;;
55069;SDS011;40967;52.070;8.596;2022-12-20T05:50:34;1.38;;;0.88;;
55069;SDS011;40967;52.070;8.596;2022-12-20T05:53:00;2.28;;;1.23;;
55069;SDS011;40967;52.070;8.596;2022-12-20T05:55:25;1.93;;;1.07;;
55069;SDS011;40967;52.070;8.596;2022-12-20T05:57:51;2.20;;;1.17;;
55069;SDS011;40967;52.070;8.596;2022-12-20T06:00:16;3.30;;;1.20;;
55069;SDS011;40967;52.070;8.596;2022-12-20T06:02:42;1.60;;;0.93;;
55069;SDS011;40967;52.070;8.596;2022-12-20T06:05:07;2.10;;;1.10;;
55069;SDS011;40967;52.070;8.596;2022-12-20T06:07:33;1.92;;;1.08;;
55069;SDS011;40967;52.070;8.596;2022-12-20T06:09:58;2.03;;;1.10;;
55069;SDS011;40967;52.070;8.596;2022-12-20T06:12:24;2.20;;;1.00;;
55069;SDS011;40967;52.070;8.596;2022-12-20T06:14:49;1.90;;;1.10;;
55069;SDS011;40967;52.070;8.596;2022-12-20T06:17:15;2.63;;;1.30;;
55069;SDS011;40967;52.070;8.596;2022-12-20T06:19:40;3.13;;;1.33;;
55069;SDS011;40967;52.070;8.596;2022-12-20T06:22:06;2.27;;;1.17;;
55069;SDS011;40967;52.070;8.596;2022-12-20T06:24:33;2.17;;;1.08;;
55069;SDS011;40967;52.070;8.596;2022-12-20T06:26:59;2.72;;;1.40;;
55069;SDS011;40967;52.070;8.596;2022-12-20T06:29:25;2.30;;;1.10;;
55069;SDS011;40967;52.070;8.596;2022-12-20T06:31:50;1.73;;;0.90;;
55069;SDS011;40967;52.070;8.596;2022-12-20T06:34:16;2.50;;;1.20;;
55069;SDS011;40967;52.070;8.596;2022-12-20T06:36:41;2.70;;;1.40;;
55069;SDS011;40967;52.070;8.596;2022-12-20T06:39:07;2.33;;;1.17;;
55069;SDS011;40967;52.070;8.596;2022-12-20T06:41:33;2.10;;;1.13;;
55069;SDS011;40967;52.070;8.596;2022-12-20T06:43:59;2.83;;;1.27;;
55069;SDS011;40967;52.070;8.596;2022-12-20T06:46:25;2.90;;;1.60;;
55069;SDS011;40967;52.070;8.596;2022-12-20T06:48:51;2.58;;;1.33;;
55069;SDS011;40967;52.070;8.596;2022-12-20T06:51:17;2.50;;;1.27;;
55069;SDS011;40967;52.070;8.596;2022-12-20T06:53:42;2.33;;;1.27;;
55069;SDS011;40967;52.070;8.596;2022-12-20T06:56:07;2.77;;;1.47;;
55069;SDS011;40967;52.070;8.596;2022-12-20T06:58:33;2.45;;;1.40;;
55069;SDS011;40967;52.070;8.596;2022-12-20T07:00:58;3.77;;;1.73;;
55069;SDS011;40967;52.070;8.596;2022-12-20T07:03:24;3.00;;;1.60;;
55069;SDS011;40967;52.070;8.596;2022-12-20T07:05:50;3.38;;;1.73;;
55069;SDS011;40967;52.070;8.596;2022-12-20T07:08:17;3.28;;;1.73;;
55069;SDS011;40967;52.070;8.596;2022-12-20T07:10:43;3.40;;;1.70;;
55069;SDS011;40967;52.070;8.596;2022-12-20T07:13:09;3.80;;;1.80;;
55069;SDS011;40967;52.070;8.596;2022-12-20T07:15:34;5.70;;;2.70;;
55069;SDS011;40967;52.070;8.596;2022-12-20T07:18:00;4.53;;;2.30;;
55069;SDS011;40967;52.070;8.596;2022-12-20T07:20:25;4.03;;;2.30;;
55069;SDS011;40967;52.070;8.596;2022-12-20T07:22:51;4.27;;;2.20;;
55069;SDS011;40967;52.070;8.596;2022-12-20T07:25:16;3.88;;;2.22;;
55069;SDS011;40967;52.070;8.596;2022-12-20T07:27:42;5.03;;;2.30;;
55069;SDS011;40967;52.070;8.596;2022-12-20T07:30:07;4.47;;;2.47;;
55069;SDS011;40967;52.070;8.596;2022-12-20T07:32:33;4.18;;;2.20;;
55069;SDS011;40967;52.070;8.596;2022-12-20T07:34:58;4.03;;;2.30;;
55069;SDS011;40967;52.070;8.596;2022-12-20T07:37:27;3.97;;;2.22;;
55069;SDS011;40967;52.070;8.596;2022-12-20T07:39:53;5.60;;;3.00;;
55069;SDS011;40967;52.070;8.596;2022-12-20T07:42:18;5.30;;;2.70;;
55069;SDS011;40967;52.070;8.596;2022-12-20T07:44:43;4.65;;;2.63;;
55069;SDS011;40967;52.070;8.596;2022-12-20T07:47:09;4.77;;;2.37;;
55069;SDS011;40967;52.070;8.596;2022-12-20T07:49:34;5.87;;;3.40;;
55069;SDS011;40967;52.070;8.596;2022-12-20T07:52:00;5.88;;;2.92;;
55069;SDS011;40967;52.070;8.596;2022-12-20T07:54:35;4.97;;;2.78;;
55069;SDS011;40967;52.070;8.596;2022-12-20T07:57:05;4.65;;;2.58;;
55069;SDS011;40967;52.070;8.596;2022-12-20T07:59:41;4.37;;;2.33;;
55069;SDS011;40967;52.070;8.596;2022-12-20T08:02:12;4.13;;;2.20;;
55069;SDS011;40967;52.070;8.596;2022-12-20T08:04:41;3.50;;;1.95;;
55069;SDS011;40967;52.070;8.596;2022-12-20T08:07:07;3.43;;;1.97;;
55069;SDS011;40967;52.070;8.596;2022-12-20T08:09:35;4.72;;;2.47;;
55069;SDS011;40967;52.070;8.596;2022-12-20T08:12:03;3.65;;;1.92;;
55069;SDS011;40967;52.070;8.596;2022-12-20T08:14:31;4.65;;;2.47;;
55069;SDS011;40967;52.070;8.596;2022-12-20T08:16:57;4.65;;;2.30;;
55069;SDS011;40967;52.070;8.596;2022-12-20T08:19:22;4.17;;;2.27;;
55069;SDS011;40967;52.070;8.596;2022-12-20T08:21:47;4.87;;;2.60;;
55069;SDS011;40967;52.070;8.596;2022-12-20T08:24:13;4.47;;;2.40;;
55069;SDS011;40967;52.070;8.596;2022-12-20T08:26:39;4.85;;;2.50;;
55069;SDS011;40967;52.070;8.596;2022-12-20T08:29:05;4.53;;;2.30;;
55069;SDS011;40967;52.070;8.596;2022-12-20T08:31:35;3.97;;;2.10;;
55069;SDS011;40967;52.070;8.596;2022-12-20T08:34:06;6.43;;;3.50;;
55069;SDS011;40967;52.070;8.596;2022-12-20T08:36:33;4.65;;;2.33;;
55069;SDS011;40967;52.070;8.596;2022-12-20T08:39:01;3.97;;;2.30;;
55069;SDS011;40967;52.070;8.596;2022-12-20T08:41:27;3.70;;;2.10;;
55069;SDS011;40967;52.070;8.596;2022-12-20T08:43:53;4.32;;;1.77;;
55069;SDS011;40967;52.070;8.596;2022-12-20T08:46:18;3.90;;;1.80;;
55069;SDS011;40967;52.070;8.596;2022-12-20T08:48:43;3.77;;;2.07;;
55069;SDS011;40967;52.070;8.596;2022-12-20T08:51:09;3.90;;;2.17;;
55069;SDS011;40967;52.070;8.596;2022-12-20T08:53:35;3.87;;;1.60;;
55069;SDS011;40967;52.070;8.596;2022-12-20T08:56:05;3.17;;;1.63;;
55069;SDS011;40967;52.070;8.596;2022-12-20T08:58:32;5.47;;;3.28;;
55069;SDS011;40967;52.070;8.596;2022-12-20T09:00:59;3.63;;;1.90;;
55069;SDS011;40967;52.070;8.596;2022-12-20T09:03:25;4.88;;;1.90;;
55069;SDS011;40967;52.070;8.596;2022-12-20T09:05:54;4.07;;;2.03;;
55069;SDS011;40967;52.070;8.596;2022-12-20T09:08:19;4.20;;;2.23;;
55069;SDS011;40967;52.070;8.596;2022-12-20T09:10:45;4.68;;;2.55;;
55069;SDS011;40967;52.070;8.596;2022-12-20T09:13:10;5.27;;;2.70;;
55069;SDS011;40967;52.070;8.596;2022-12-20T09:15:36;4.43;;;2.23;;
55069;SDS011;40967;52.070;8.596;2022-12-20T09:18:01;4.25;;;2.20;;
55069;SDS011;40967;52.070;8.596;2022-12-20T09:20:28;3.53;;;1.90;;
55069;SDS011;40967;52.070;8.596;2022-12-20T09:22:53;4.20;;;2.50;;
55069;SDS011;40967;52.070;8.596;2022-12-20T09:25:19;4.80;;;2.47;;
55069;SDS011;40967;52.070;8.596;2022-12-20T09:27:44;4.53;;;2.53;;
55069;SDS011;40967;52.070;8.596;2022-12-20T09:30:09;4.60;;;2.60;;
55069;SDS011;40967;52.070;8.596;2022-12-20T09:32:35;4.23;;;2.20;;
55069;SDS011;40967;52.070;8.596;2022-12-20T09:35:01;3.97;;;2.00;;
55069;SDS011;40967;52.070;8.596;2022-12-20T09:37:29;4.65;;;2.55;;
55069;SDS011;40967;52.070;8.596;2022-12-20T09:39:55;7.85;;;3.05;;
55069;SDS011;40967;52.070;8.596;2022-12-20T09:42:21;5.70;;;2.97;;
55069;SDS011;40967;52.070;8.596;2022-12-20T09:44:50;4.20;;;2.30;;
55069;SDS011;40967;52.070;8.596;2022-12-20T09:47:18;4.68;;;2.38;;
55069;SDS011;40967;52.070;8.596;2022-12-20T09:49:47;4.75;;;2.30;;
55069;SDS011;40967;52.070;8.596;2022-12-20T09:58:03;3.80;;;2.03;;
55069;SDS011;40967;52.070;8.596;2022-12-20T10:00:46;4.63;;;2.42;;
55069;SDS011;40967;52.070;8.596;2022-12-20T10:03:17;4.03;;;2.00;;
55069;SDS011;40967;52.070;8.596;2022-12-20T10:05:49;3.85;;;2.03;;
55069;SDS011;40967;52.070;8.596;2022-12-20T10:11:01;4.00;;;2.00;;
55069;SDS011;40967;52.070;8.596;2022-12-20T10:16:32;3.97;;;2.05;;
55069;SDS011;40967;52.070;8.596;2022-12-20T10:24:27;4.32;;;2.38;;
55069;SDS011;40967;52.070;8.596;2022-12-20T10:26:54;4.00;;;1.90;;
55069;SDS011;40967;52.070;8.596;2022-12-20T10:29:20;4.35;;;2.40;;
55069;SDS011;40967;52.070;8.596;2022-12-20T10:31:52;3.87;;;2.17;;
55069;SDS011;40967;52.070;8.596;2022-12-20T10:34:23;4.35;;;1.80;;
55069;SDS011;40967;52.070;8.596;2022-12-20T10:36:48;3.53;;;1.63;;
55069;SDS011;40967;52.070;8.596;2022-12-20T10:39:41;3.75;;;1.58;;
55069;SDS011;40967;52.070;8.596;2022-12-20T10:42:24;4.10;;;1.85;;
55069;SDS011;40967;52.070;8.596;2022-12-20T10:44:56;3.47;;;2.00;;
55069;SDS011;40967;52.070;8.596;2022-12-20T10:47:37;5.45;;;2.20;;
55069;SDS011;40967;52.070;8.596;2022-12-20T10:50:19;5.30;;;2.83;;
55069;SDS011;40967;52.070;8.596;2022-12-20T10:53:01;5.57;;;2.55;;
55069;SDS011;40967;52.070;8.596;2022-12-20T10:55:35;3.97;;;2.00;;
55069;SDS011;40967;52.070;8.596;2022-12-20T10:58:05;4.55;;;1.90;;
55069;SDS011;40967;52.070;8.596;2022-12-20T11:00:41;2.97;;;1.60;;
55069;SDS011;40967;52.070;8.596;2022-12-20T11:03:13;3.00;;;1.50;;
55069;SDS011;40967;52.070;8.596;2022-12-20T11:05:57;3.47;;;1.50;;
55069;SDS011;40967;52.070;8.596;2022-12-20T11:08:29;2.33;;;1.30;;
55069;SDS011;40967;52.070;8.596;2022-12-20T11:13:43;2.30;;;1.10;;
55069;SDS011;40967;52.070;8.596;2022-12-20T11:21:45;2.35;;;1.23;;
55069;SDS011;40967;52.070;8.596;2022-12-20T11:24:20;2.93;;;1.30;;
55069;SDS011;40967;52.070;8.596;2022-12-20T11:38:28;4.03;;;1.90;;
55069;SDS011;40967;52.070;8.596;2022-12-20T11:41:20;4.07;;;1.80;;
55069;SDS011;40967;52.070;8.596;2022-12-20T11:55:44;4.07;;;1.90;;
55069;SDS011;40967;52.070;8.596;2022-12-20T11:57:59;3.00;;;1.40;;
55069;SDS011;40967;52.070;8.596;2022-12-20T12:00:35;2.67;;;1.48;;
55069;SDS011;40967;52.070;8.596;2022-12-20T12:06:06;3.10;;;1.35;;
55069;SDS011;40967;52.070;8.596;2022-12-20T12:08:41;2.65;;;1.30;;
55069;SDS011;40967;52.070;8.596;2022-12-20T12:11:18;2.58;;;1.33;;
55069;SDS011;40967;52.070;8.596;2022-12-20T12:13:48;2.63;;;1.20;;
55069;SDS011;40967;52.070;8.596;2022-12-20T12:16:28;2.72;;;1.33;;
55069;SDS011;40967;52.070;8.596;2022-12-20T12:18:56;2.53;;;1.20;;
55069;SDS011;40967;52.070;8.596;2022-12-20T12:21:24;2.88;;;1.23;;
55069;SDS011;40967;52.070;8.596;2022-12-20T12:26:32;2.03;;;1.02;;
55069;SDS011;40967;52.070;8.596;2022-12-20T12:29:04;2.70;;;1.30;;
55069;SDS011;40967;52.070;8.596;2022-12-20T12:39:21;1.70;;;0.90;;
55069;SDS011;40967;52.070;8.596;2022-12-20T12:44:40;2.05;;;1.05;;
55069;SDS011;40967;52.070;8.596;2022-12-20T12:47:16;1.42;;;0.80;;
55069;SDS011;40967;52.070;8.596;2022-12-20T12:49:47;1.52;;;0.80;;
55069;SDS011;40967;52.070;8.596;2022-12-20T12:58:11;1.97;;;0.93;;
55069;SDS011;40967;52.070;8.596;2022-12-20T13:00:49;1.60;;;0.87;;
55069;SDS011;40967;52.070;8.596;2022-12-20T13:11:34;1.73;;;0.90;;
55069;SDS011;40967;52.070;8.596;2022-12-20T13:16:45;1.83;;;0.88;;
55069;SDS011;40967;52.070;8.596;2022-12-20T13:19:12;1.58;;;0.80;;
55069;SDS011;40967;52.070;8.596;2022-12-20T13:21:46;1.97;;;0.90;;
55069;SDS011;40967;52.070;8.596;2022-12-20T13:27:01;2.38;;;1.27;;
55069;SDS011;40967;52.070;8.596;2022-12-20T13:29:34;1.83;;;0.90;;
55069;SDS011;40967;52.070;8.596;2022-12-20T13:32:00;2.05;;;0.95;;
55069;SDS011;40967;52.070;8.596;2022-12-20T13:34:37;1.45;;;0.80;;
55069;SDS011;40967;52.070;8.596;2022-12-20T13:37:27;2.00;;;1.00;;
55069;SDS011;40967;52.070;8.596;2022-12-20T13:40:20;1.23;;;0.70;;
55069;SDS011;40967;52.070;8.596;2022-12-20T13:42:55;1.45;;;0.60;;
55069;SDS011;40967;52.070;8.596;2022-12-20T13:45:23;1.10;;;0.60;;
55069;SDS011;40967;52.070;8.596;2022-12-20T13:47:53;1.23;;;0.60;;
55069;SDS011;40967;52.070;8.596;2022-12-20T13:50:23;1.65;;;0.75;;
55069;SDS011;40967;52.070;8.596;2022-12-20T13:52:53;1.02;;;0.50;;
55069;SDS011;40967;52.070;8.596;2022-12-20T13:55:30;1.55;;;0.60;;
55069;SDS011;40967;52.070;8.596;2022-12-20T13:58:03;1.70;;;0.80;;
55069;SDS011;40967;52.070;8.596;2022-12-20T14:01:05;1.63;;;0.80;;
55069;SDS011;40967;52.070;8.596;2022-12-20T14:03:39;1.67;;;0.88;;
55069;SDS011;40967;52.070;8.596;2022-12-20T14:06:10;1.52;;;0.82;;
55069;SDS011;40967;52.070;8.596;2022-12-20T14:08:48;1.63;;;0.73;;
55069;SDS011;40967;52.070;8.596;2022-12-20T14:11:20;1.60;;;0.80;;
55069;SDS011;40967;52.070;8.596;2022-12-20T14:14:44;1.85;;;0.80;;
55069;SDS011;40967;52.070;8.596;2022-12-20T14:17:15;1.05;;;0.60;;
55069;SDS011;40967;52.070;8.596;2022-12-20T14:22:57;1.58;;;0.80;;
55069;SDS011;40967;52.070;8.596;2022-12-20T14:25:29;1.80;;;0.70;;
55069;SDS011;40967;52.070;8.596;2022-12-20T14:28:29;2.43;;;0.97;;
55069;SDS011;40967;52.070;8.596;2022-12-20T14:30:56;1.67;;;0.88;;
55069;SDS011;40967;52.070;8.596;2022-12-20T14:33:27;3.17;;;1.00;;
55069;SDS011;40967;52.070;8.596;2022-12-20T14:35:53;2.03;;;0.90;;
55069;SDS011;40967;52.070;8.596;2022-12-20T14:38:30;1.67;;;0.90;;
55069;SDS011;40967;52.070;8.596;2022-12-20T14:40:55;1.45;;;0.80;;
55069;SDS011;40967;52.070;8.596;2022-12-20T14:43:32;2.00;;;0.97;;
55069;SDS011;40967;52.070;8.596;2022-12-20T14:46:06;1.03;;;0.70;;
55069;SDS011;40967;52.070;8.596;2022-12-20T14:48:43;2.88;;;1.10;;
55069;SDS011;40967;52.070;8.596;2022-12-20T14:51:08;1.70;;;0.80;;
55069;SDS011;40967;52.070;8.596;2022-12-20T14:53:34;1.23;;;0.60;;
55069;SDS011;40967;52.070;8.596;2022-12-20T14:56:01;0.85;;;0.57;;
55069;SDS011;40967;52.070;8.596;2022-12-20T14:58:33;1.02;;;0.60;;
55069;SDS011;40967;52.070;8.596;2022-12-20T15:00:59;1.40;;;0.70;;
55069;SDS011;40967;52.070;8.596;2022-12-20T15:03:49;1.63;;;0.63;;
55069;SDS011;40967;52.070;8.596;2022-12-20T15:06:31;1.00;;;0.60;;
55069;SDS011;40967;52.070;8.596;2022-12-20T15:08:59;1.65;;;0.75;;
55069;SDS011;40967;52.070;8.596;2022-12-20T15:11:25;1.70;;;0.80;;
55069;SDS011;40967;52.070;8.596;2022-12-20T15:13:51;3.05;;;1.30;;
55069;SDS011;40967;52.070;8.596;2022-12-20T15:18:49;4.50;;;1.58;;
55069;SDS011;40967;52.070;8.596;2022-12-20T15:21:32;3.22;;;1.30;;
55069;SDS011;40967;52.070;8.596;2022-12-20T15:24:01;3.47;;;1.57;;
55069;SDS011;40967;52.070;8.596;2022-12-20T15:26:32;4.13;;;1.63;;
55069;SDS011;40967;52.070;8.596;2022-12-20T15:28:58;4.18;;;1.80;;
55069;SDS011;40967;52.070;8.596;2022-12-20T15:31:24;3.87;;;1.70;;
55069;SDS011;40967;52.070;8.596;2022-12-20T15:33:51;4.03;;;1.60;;
55069;SDS011;40967;52.070;8.596;2022-12-20T15:36:19;2.42;;;1.20;;
55069;SDS011;40967;52.070;8.596;2022-12-20T15:38:46;5.70;;;1.90;;
55069;SDS011;40967;52.070;8.596;2022-12-20T15:41:28;3.57;;;1.50;;
55069;SDS011;40967;52.070;8.596;2022-12-20T15:44:00;3.80;;;1.67;;
55069;SDS011;40967;52.070;8.596;2022-12-20T15:46:29;3.97;;;1.40;;
55069;SDS011;40967;52.070;8.596;2022-12-20T15:48:56;3.30;;;1.58;;
55069;SDS011;40967;52.070;8.596;2022-12-20T15:51:35;2.78;;;1.20;;
55069;SDS011;40967;52.070;8.596;2022-12-20T15:54:05;4.10;;;1.75;;
55069;SDS011;40967;52.070;8.596;2022-12-20T15:56:38;3.55;;;1.55;;
55069;SDS011;40967;52.070;8.596;2022-12-20T15:59:03;2.60;;;1.37;;
55069;SDS011;40967;52.070;8.596;2022-12-20T16:01:36;2.90;;;1.30;;
55069;SDS011;40967;52.070;8.596;2022-12-20T16:04:02;3.23;;;1.20;;
55069;SDS011;40967;52.070;8.596;2022-12-20T16:06:29;2.35;;;1.13;;
55069;SDS011;40967;52.070;8.596;2022-12-20T16:08:54;2.10;;;1.10;;
55069;SDS011;40967;52.070;8.596;2022-12-20T16:11:26;2.67;;;1.10;;
55069;SDS011;40967;52.070;8.596;2022-12-20T16:13:54;3.40;;;1.67;;
55069;SDS011;40967;52.070;8.596;2022-12-20T16:16:27;3.63;;;1.50;;
55069;SDS011;40967;52.070;8.596;2022-12-20T16:18:54;2.58;;;1.20;;
55069;SDS011;40967;52.070;8.596;2022-12-20T16:21:28;2.37;;;1.10;;
55069;SDS011;40967;52.070;8.596;2022-12-20T16:23:56;2.27;;;1.07;;
55069;SDS011;40967;52.070;8.596;2022-12-20T16:26:22;1.88;;;0.93;;
55069;SDS011;40967;52.070;8.596;2022-12-20T16:28:49;1.75;;;0.90;;
55069;SDS011;40967;52.070;8.596;2022-12-20T16:31:23;1.27;;;0.70;;
55069;SDS011;40967;52.070;8.596;2022-12-20T16:33:55;1.83;;;0.90;;
55069;SDS011;40967;52.070;8.596;2022-12-20T16:36:21;1.75;;;0.95;;
55069;SDS011;40967;52.070;8.596;2022-12-20T16:38:47;1.87;;;0.93;;
55069;SDS011;40967;52.070;8.596;2022-12-20T16:43:41;1.35;;;0.90;;
55069;SDS011;40967;52.070;8.596;2022-12-20T16:46:11;1.70;;;0.82;;
55069;SDS011;40967;52.070;8.596;2022-12-20T16:48:38;1.48;;;0.90;;
55069;SDS011;40967;52.070;8.596;2022-12-20T16:51:21;1.80;;;0.82;;
55069;SDS011;40967;52.070;8.596;2022-12-20T16:56:29;1.73;;;0.85;;
55069;SDS011;40967;52.070;8.596;2022-12-20T16:58:56;1.20;;;0.73;;